createdAt,value
2023-03-26T00:00:58.848Z,16.28
2023-03-26T00:03:30.559Z,16.26
2023-03-26T00:06:07.729Z,16.24
2023-03-26T00:08:40.680Z,16.24
2023-03-26T00:11:13.732Z,16.23
2023-03-26T00:13:45.619Z,16.22
2023-03-26T00:16:18.845Z,16.20
2023-03-26T00:18:51.743Z,16.21
2023-03-26T00:21:28.153Z,16.20
2023-03-26T00:24:04.470Z,16.20
2023-03-26T00:26:37.660Z,16.20
2023-03-26T00:29:09.992Z,16.20
2023-03-26T00:31:41.292Z,16.19
2023-03-26T00:34:14.160Z,16.19
2023-03-26T00:36:47.088Z,16.18
2023-03-26T00:39:19.183Z,16.15
2023-03-26T00:41:54.868Z,16.13
2023-03-26T00:44:26.515Z,16.13
2023-03-26T00:46:58.277Z,16.13
2023-03-26T00:49:30.974Z,16.12
2023-03-26T00:52:03.416Z,16.12
2023-03-26T00:54:35.114Z,16.12
2023-03-26T00:57:06.958Z,16.13
2023-03-26T00:59:38.565Z,16.14
2023-03-26T01:02:13.054Z,16.15
2023-03-26T01:04:48.778Z,16.18
2023-03-26T01:07:22.643Z,16.19
2023-03-26T01:09:55.210Z,16.20
2023-03-26T01:12:28.864Z,16.22
2023-03-26T01:15:04.053Z,16.22
2023-03-26T01:17:35.332Z,16.23
2023-03-26T01:20:15.123Z,16.24
2023-03-26T01:22:51.126Z,16.24
2023-03-26T01:25:24.731Z,16.25
2023-03-26T01:27:57.933Z,16.26
2023-03-26T01:30:37.243Z,16.26
2023-03-26T01:33:16.464Z,16.25
2023-03-26T01:35:54.390Z,16.24
2023-03-26T01:38:35.746Z,16.24
2023-03-26T01:41:13.353Z,16.23
2023-03-26T01:43:51.516Z,16.23
2023-03-26T01:46:25.756Z,16.23
2023-03-26T01:48:57.561Z,16.23
2023-03-26T01:51:33.533Z,16.23
2023-03-26T01:54:10.024Z,16.23
2023-03-26T01:56:49.930Z,16.23
2023-03-26T01:59:39.956Z,16.24
2023-03-26T02:02:14.859Z,16.26
2023-03-26T02:04:53.558Z,16.27
2023-03-26T02:07:34.658Z,16.28
2023-03-26T02:10:13.688Z,16.29
2023-03-26T02:12:46.004Z,16.30
2023-03-26T02:15:17.774Z,16.29
2023-03-26T02:17:49.674Z,16.28
2023-03-26T02:20:22.476Z,16.28
2023-03-26T02:22:53.883Z,16.29
2023-03-26T02:25:25.922Z,16.29
2023-03-26T02:27:57.962Z,16.27
2023-03-26T02:30:30.255Z,16.26
2023-03-26T02:33:03.666Z,16.25
2023-03-26T02:35:41.746Z,16.24
2023-03-26T02:38:14.810Z,16.23
2023-03-26T02:40:46.779Z,16.22
2023-03-26T02:43:18.703Z,16.20
2023-03-26T02:45:50.119Z,16.19
2023-03-26T02:48:41.601Z,16.18
2023-03-26T02:51:22.742Z,16.17
2023-03-26T02:54:02.583Z,16.16
2023-03-26T02:57:06.365Z,16.15
2023-03-26T02:59:50.467Z,16.15
2023-03-26T03:02:38.977Z,16.15
2023-03-26T03:05:31.607Z,16.15
2023-03-26T03:08:24.702Z,16.16
2023-03-26T03:11:25.237Z,16.16
2023-03-26T03:13:57.266Z,16.19
2023-03-26T03:16:32.264Z,16.22
2023-03-26T03:19:08.778Z,16.24
2023-03-26T03:21:42.812Z,16.25
2023-03-26T03:24:18.609Z,16.26
2023-03-26T03:26:56.972Z,16.27
2023-03-26T03:29:39.383Z,16.29
2023-03-26T03:32:46.022Z,16.33
2023-03-26T03:35:19.383Z,16.34
2023-03-26T03:37:53.577Z,16.36
2023-03-26T03:40:25.219Z,16.36
2023-03-26T03:42:57.174Z,16.36
2023-03-26T03:45:35.804Z,16.37
2023-03-26T03:48:12.198Z,16.37
2023-03-26T03:50:46.394Z,16.36
2023-03-26T03:53:26.532Z,16.37
2023-03-26T03:56:00.359Z,16.36
2023-03-26T03:58:45.652Z,16.35
2023-03-26T04:01:19.109Z,16.35
2023-03-26T04:04:03.512Z,16.36
2023-03-26T04:06:55.176Z,16.36
2023-03-26T04:09:27.492Z,16.36
2023-03-26T04:12:01.785Z,16.35
2023-03-26T04:14:35.965Z,16.34
2023-03-26T04:17:21.956Z,16.32
2023-03-26T04:19:55.229Z,16.29
2023-03-26T04:22:35.064Z,16.26
2023-03-26T04:25:09.557Z,16.24
2023-03-26T04:27:55.745Z,16.22
2023-03-26T04:30:54.331Z,16.19
2023-03-26T04:33:36.848Z,16.18
2023-03-26T04:36:10.515Z,16.16
2023-03-26T04:38:45.234Z,16.17
2023-03-26T04:41:17.445Z,16.18
2023-03-26T04:43:50.669Z,16.19
2023-03-26T04:46:38.553Z,16.19
2023-03-26T04:49:27.011Z,16.19
2023-03-26T04:51:58.503Z,16.20
2023-03-26T04:55:06.989Z,16.20
2023-03-26T04:57:46.471Z,16.19
2023-03-26T05:00:39.054Z,16.19
2023-03-26T05:03:12.892Z,16.20
2023-03-26T05:05:44.794Z,16.21
2023-03-26T05:08:16.640Z,16.23
2023-03-26T05:10:48.393Z,16.25
2023-03-26T05:13:34.424Z,16.26
2023-03-26T05:16:12.577Z,16.26
2023-03-26T05:18:54.248Z,16.25
2023-03-26T05:21:26.070Z,16.25
2023-03-26T05:23:57.652Z,16.28
2023-03-26T05:26:29.257Z,16.33
2023-03-26T05:29:03.028Z,16.39
2023-03-26T05:31:38.235Z,16.43
2023-03-26T05:34:09.812Z,16.48
2023-03-26T05:36:40.834Z,16.51
2023-03-26T05:39:29.999Z,16.57
2023-03-26T05:42:10.093Z,16.65
2023-03-26T05:44:53.989Z,16.72
2023-03-26T05:47:29.472Z,16.77
2023-03-26T05:50:01.630Z,16.81
2023-03-26T05:52:34.166Z,16.89
2023-03-26T05:55:33.519Z,16.98
2023-03-26T05:58:23.361Z,17.08
2023-03-26T06:01:17.242Z,17.19
2023-03-26T06:04:08.523Z,17.31
2023-03-26T06:06:42.944Z,17.39
2023-03-26T06:09:14.996Z,17.48
2023-03-26T06:11:47.232Z,17.55
2023-03-26T06:14:18.606Z,17.60
2023-03-26T06:17:18.991Z,17.65
2023-03-26T06:20:11.149Z,17.67
2023-03-26T06:22:45.852Z,17.69
2023-03-26T06:25:23.861Z,17.76
2023-03-26T06:28:03.007Z,17.85
2023-03-26T06:30:53.489Z,17.89
2023-03-26T06:33:36.941Z,17.90
2023-03-26T06:36:10.099Z,17.91
2023-03-26T06:38:42.074Z,17.88
2023-03-26T06:41:14.557Z,17.85
2023-03-26T06:44:07.016Z,17.82
2023-03-26T06:46:57.179Z,17.78
2023-03-26T06:49:54.520Z,17.76
2023-03-26T06:52:39.725Z,17.81
2023-03-26T06:55:34.289Z,17.90
2023-03-26T06:58:16.827Z,18.02
2023-03-26T07:00:48.070Z,18.11
2023-03-26T07:03:46.131Z,18.18
2023-03-26T07:06:36.247Z,18.24
2023-03-26T07:09:30.314Z,18.30
2023-03-26T07:12:04.313Z,18.36
2023-03-26T07:14:53.941Z,18.42
2023-03-26T07:17:31.706Z,18.43
2023-03-26T07:20:29.027Z,18.43
2023-03-26T07:23:03.568Z,18.45
2023-03-26T07:25:56.112Z,18.48
2023-03-26T07:29:03.790Z,18.48
2023-03-26T07:32:16.187Z,18.47
2023-03-26T07:35:15.001Z,18.46
2023-03-26T07:38:29.165Z,18.51
2023-03-26T07:41:21.432Z,18.53
2023-03-26T07:44:35.242Z,18.52
2023-03-26T07:47:29.787Z,18.63
2023-03-26T07:50:22.452Z,18.72
2023-03-26T07:53:17.936Z,18.77
2023-03-26T07:56:17.253Z,18.79
2023-03-26T07:59:22.059Z,18.80
2023-03-26T08:02:38.082Z,18.89
2023-03-26T08:05:49.341Z,18.97
2023-03-26T08:08:34.473Z,19.00
2023-03-26T08:11:36.311Z,19.06
2023-03-26T08:14:22.833Z,19.12
2023-03-26T08:16:59.586Z,19.15
2023-03-26T08:19:45.525Z,19.22
2023-03-26T08:22:26.370Z,19.27
2023-03-26T08:25:18.123Z,19.31
2023-03-26T08:28:04.190Z,19.25
2023-03-26T08:30:36.893Z,19.15
2023-03-26T08:33:18.047Z,19.06
2023-03-26T08:35:50.900Z,19.01
2023-03-26T08:38:23.709Z,19.04
2023-03-26T08:41:34.767Z,19.02
2023-03-26T08:44:41.185Z,18.92
2023-03-26T08:47:42.166Z,18.75
2023-03-26T08:50:42.105Z,18.46
2023-03-26T08:53:29.359Z,18.12
2023-03-26T08:56:14.077Z,17.78
2023-03-26T08:59:25.443Z,17.57
2023-03-26T09:02:19.354Z,17.45
2023-03-26T09:08:32.523Z,17.08
2023-03-26T09:11:32.700Z,17.08
2023-03-26T09:14:30.416Z,17.06
2023-03-26T09:17:36.340Z,17.14
2023-03-26T09:20:35.403Z,17.22
2023-03-26T09:23:33.325Z,17.19
2023-03-26T09:26:33.661Z,17.08
2023-03-26T09:29:34.642Z,17.03
2023-03-26T09:32:33.248Z,17.03
2023-03-26T09:35:29.872Z,17.14
2023-03-26T09:38:13.774Z,17.23
2023-03-26T09:40:55.484Z,17.26
2023-03-26T09:43:45.133Z,17.29
2023-03-26T09:46:27.065Z,17.35
2023-03-26T09:49:21.656Z,17.36
2023-03-26T09:52:04.929Z,17.36
2023-03-26T09:54:58.443Z,17.43
2023-03-26T09:57:53.954Z,17.63
2023-03-26T10:00:37.904Z,17.60
2023-03-26T10:03:44.898Z,17.60
2023-03-26T10:06:38.945Z,17.59
2023-03-26T10:09:37.368Z,17.53
2023-03-26T10:12:27.440Z,17.46
2023-03-26T10:15:13.259Z,17.40
2023-03-26T10:17:58.260Z,17.45
2023-03-26T10:20:41.638Z,17.59
2023-03-26T10:23:24.935Z,17.72
2023-03-26T10:26:08.423Z,17.82
2023-03-26T10:28:57.088Z,17.88
2023-03-26T10:31:42.093Z,18.03
2023-03-26T10:34:33.033Z,18.23
2023-03-26T10:37:11.842Z,18.36
2023-03-26T10:40:02.902Z,18.50
2023-03-26T10:42:56.524Z,18.59
2023-03-26T10:45:55.357Z,18.54
2023-03-26T10:48:47.795Z,18.47
2023-03-26T10:51:38.880Z,18.39
2023-03-26T10:54:21.733Z,18.26
2023-03-26T10:56:55.715Z,18.14
2023-03-26T10:59:29.419Z,18.12
2023-03-26T11:02:29.406Z,18.03
2023-03-26T11:05:26.960Z,17.80
2023-03-26T11:08:05.643Z,17.76
2023-03-26T11:10:47.536Z,17.90
2023-03-26T11:13:30.643Z,18.00
2023-03-26T11:16:07.295Z,18.06
2023-03-26T11:18:46.568Z,18.07
2023-03-26T11:21:26.082Z,18.04
2023-03-26T11:24:19.759Z,17.92
2023-03-26T11:26:58.124Z,17.87
2023-03-26T11:29:58.312Z,17.99
2023-03-26T11:32:39.486Z,18.08
2023-03-26T11:35:40.640Z,18.01
2023-03-26T11:38:20.010Z,17.86
2023-03-26T11:40:54.506Z,17.76
2023-03-26T11:43:39.582Z,17.75
2023-03-26T11:46:14.527Z,17.81
2023-03-26T11:48:49.442Z,17.81
2023-03-26T11:51:25.038Z,17.88
2023-03-26T11:53:58.078Z,17.99
2023-03-26T11:56:33.867Z,18.11
2023-03-26T11:59:11.453Z,18.23
2023-03-26T12:01:52.045Z,18.34
2023-03-26T12:04:31.770Z,18.40
2023-03-26T12:07:16.770Z,18.37
2023-03-26T12:09:55.059Z,18.43
2023-03-26T12:12:29.350Z,18.40
2023-03-26T12:15:01.409Z,18.38
2023-03-26T12:17:36.445Z,18.49
2023-03-26T12:20:32.387Z,18.50
2023-03-26T12:23:06.652Z,18.48
2023-03-26T12:25:40.209Z,18.50
2023-03-26T12:28:21.514Z,18.45
2023-03-26T12:31:03.194Z,18.40
2023-03-26T12:33:38.920Z,18.32
2023-03-26T12:36:25.680Z,18.22
2023-03-26T12:39:16.310Z,18.22
2023-03-26T12:44:43.637Z,18.26
2023-03-26T12:48:00.068Z,18.30
2023-03-26T12:50:34.656Z,18.41
2023-03-26T12:53:35.131Z,18.61
2023-03-26T12:56:17.595Z,18.91
2023-03-26T12:59:18.573Z,19.16
2023-03-26T13:02:01.446Z,19.42
2023-03-26T13:05:05.766Z,19.41
2023-03-26T13:07:55.041Z,19.32
2023-03-26T13:10:49.812Z,19.37
2023-03-26T13:13:45.741Z,19.44
2023-03-26T13:16:25.186Z,19.64
2023-03-26T13:19:01.634Z,19.77
2023-03-26T13:21:43.923Z,19.80
2023-03-26T13:24:24.994Z,19.77
2023-03-26T13:27:11.160Z,19.82
2023-03-26T13:29:51.823Z,19.89
2023-03-26T13:32:31.074Z,19.76
2023-03-26T13:35:14.625Z,19.57
2023-03-26T13:37:53.665Z,19.29
2023-03-26T13:40:32.298Z,19.13
2023-03-26T13:43:20.854Z,19.19
2023-03-26T13:46:00.963Z,19.26
2023-03-26T13:48:37.632Z,19.20
2023-03-26T13:51:14.566Z,19.25
2023-03-26T13:53:52.347Z,19.37
2023-03-26T13:56:29.245Z,19.52
2023-03-26T13:59:09.108Z,19.65
2023-03-26T14:01:48.711Z,19.70
2023-03-26T14:04:32.359Z,19.67
2023-03-26T14:07:11.057Z,19.65
2023-03-26T14:09:48.480Z,19.66
2023-03-26T14:12:39.794Z,19.56
2023-03-26T14:15:17.382Z,19.37
2023-03-26T14:17:53.308Z,19.25
2023-03-26T14:21:01.578Z,19.08
2023-03-26T14:23:50.320Z,18.99
2023-03-26T14:26:35.043Z,19.02
2023-03-26T14:29:30.302Z,19.01
2023-03-26T14:32:24.215Z,19.03
2023-03-26T14:35:16.702Z,19.04
2023-03-26T14:38:08.225Z,19.01
2023-03-26T14:40:57.757Z,18.96
2023-03-26T14:43:56.186Z,18.89
2023-03-26T14:46:42.567Z,18.85
2023-03-26T14:49:36.279Z,18.83
2023-03-26T14:52:15.319Z,18.86
2023-03-26T14:54:49.184Z,18.89
2023-03-26T14:57:50.769Z,18.93
2023-03-26T15:00:48.782Z,18.97
2023-03-26T15:03:52.713Z,19.09
2023-03-26T15:06:55.029Z,19.11
2023-03-26T15:09:58.940Z,19.12
2023-03-26T15:12:50.364Z,19.12
2023-03-26T15:15:54.087Z,19.11
2023-03-26T15:19:05.973Z,19.09
2023-03-26T15:22:13.141Z,19.06
2023-03-26T15:25:17.188Z,19.02
2023-03-26T15:28:12.481Z,19.00
2023-03-26T15:31:18.834Z,18.99
2023-03-26T15:34:19.992Z,18.98
2023-03-26T15:37:31.502Z,18.93
2023-03-26T15:40:28.095Z,18.90
2023-03-26T15:43:11.861Z,18.86
2023-03-26T15:45:47.475Z,18.82
2023-03-26T15:48:36.592Z,18.77
2023-03-26T15:51:47.567Z,18.74
2023-03-26T15:54:30.604Z,18.75
2023-03-26T15:57:20.848Z,18.75
2023-03-26T16:00:12.474Z,18.62
2023-03-26T16:02:53.866Z,18.47
2023-03-26T16:05:41.993Z,18.47
2023-03-26T16:08:27.391Z,18.50
2023-03-26T16:11:07.850Z,18.59
2023-03-26T16:13:41.823Z,18.66
2023-03-26T16:16:26.377Z,18.70
2023-03-26T16:19:36.320Z,18.77
2023-03-26T16:22:14.621Z,18.86
2023-03-26T16:25:27.090Z,18.88
2023-03-26T16:28:28.953Z,18.71
2023-03-26T16:31:38.211Z,18.53
2023-03-26T16:34:40.412Z,18.41
2023-03-26T16:37:38.335Z,18.41
2023-03-26T16:40:29.775Z,18.48
2023-03-26T16:43:14.738Z,18.52
2023-03-26T16:45:53.357Z,18.52
2023-03-26T16:48:32.743Z,18.41
2023-03-26T16:51:17.447Z,18.24
2023-03-26T16:53:58.228Z,18.10
2023-03-26T16:56:45.118Z,18.01
2023-03-26T16:59:39.866Z,17.83
2023-03-26T17:02:22.364Z,17.69
2023-03-26T17:05:01.639Z,17.62
2023-03-26T17:07:39.320Z,17.57
2023-03-26T17:10:17.174Z,17.52
2023-03-26T17:12:58.085Z,17.46
2023-03-26T17:15:41.441Z,17.42
2023-03-26T17:18:29.608Z,17.40
2023-03-26T17:21:05.814Z,17.32
2023-03-26T17:23:53.300Z,17.24
2023-03-26T17:26:35.139Z,17.15
2023-03-26T17:29:23.508Z,17.08
2023-03-26T17:32:00.698Z,17.01
2023-03-26T17:35:00.784Z,17.04
2023-03-26T17:37:49.649Z,17.07
2023-03-26T17:40:59.723Z,17.05
2023-03-26T17:43:44.700Z,17.09
2023-03-26T17:46:29.326Z,17.16
2023-03-26T17:49:13.438Z,17.23
2023-03-26T17:51:53.035Z,17.28
2023-03-26T17:54:28.394Z,17.32
2023-03-26T17:57:04.822Z,17.35
2023-03-26T17:59:39.324Z,17.38
2023-03-26T18:02:17.677Z,17.40
2023-03-26T18:04:52.858Z,17.41
2023-03-26T18:07:58.392Z,17.41
2023-03-26T18:10:50.120Z,17.43
2023-03-26T18:13:43.889Z,17.41
2023-03-26T18:16:20.939Z,17.40
2023-03-26T18:18:57.153Z,17.39
2023-03-26T18:21:32.175Z,17.38
2023-03-26T18:24:06.200Z,17.36
2023-03-26T18:26:41.268Z,17.35
2023-03-26T18:29:25.045Z,17.29
2023-03-26T18:32:02.819Z,17.24
2023-03-26T18:34:36.547Z,17.28
2023-03-26T18:37:20.326Z,17.29
2023-03-26T18:40:02.411Z,17.30
2023-03-26T18:42:35.536Z,17.31
2023-03-26T18:45:11.313Z,17.32
2023-03-26T18:47:43.448Z,17.31
2023-03-26T18:50:24.457Z,17.30
2023-03-26T18:52:57.774Z,17.26
2023-03-26T18:55:33.676Z,17.21
2023-03-26T18:58:23.175Z,17.18
2023-03-26T19:00:57.731Z,17.17
2023-03-26T19:03:32.227Z,17.17
2023-03-26T19:06:10.294Z,17.15
2023-03-26T19:08:44.739Z,17.13
2023-03-26T19:11:19.283Z,17.13
2023-03-26T19:14:04.427Z,17.13
2023-03-26T19:16:43.641Z,17.11
2023-03-26T19:19:23.280Z,17.09
2023-03-26T19:21:54.827Z,17.06
2023-03-26T19:24:26.887Z,17.08
2023-03-26T19:26:58.792Z,17.08
2023-03-26T19:29:33.868Z,17.06
2023-03-26T19:32:07.740Z,17.02
2023-03-26T19:34:41.624Z,16.95
2023-03-26T19:37:23.894Z,16.90
2023-03-26T19:39:58.756Z,16.91
2023-03-26T19:42:42.912Z,16.88
2023-03-26T19:45:19.246Z,16.88
2023-03-26T19:48:00.428Z,16.89
2023-03-26T19:50:42.450Z,16.90
2023-03-26T19:53:25.563Z,16.91
2023-03-26T19:55:58.967Z,16.91
2023-03-26T19:58:30.857Z,16.82
2023-03-26T20:01:02.475Z,16.72
2023-03-26T20:03:40.559Z,16.69
2023-03-26T20:06:15.350Z,16.71
2023-03-26T20:08:47.247Z,16.70
2023-03-26T20:11:21.161Z,16.69
2023-03-26T20:13:52.972Z,16.61
2023-03-26T20:16:27.921Z,16.50
2023-03-26T20:19:02.586Z,16.45
2023-03-26T20:21:38.093Z,16.44
2023-03-26T20:24:15.948Z,16.45
2023-03-26T20:26:47.826Z,16.41
2023-03-26T20:29:19.911Z,16.38
2023-03-26T20:31:51.314Z,16.38
2023-03-26T20:34:24.792Z,16.39
2023-03-26T20:36:57.186Z,16.38
2023-03-26T20:39:32.297Z,16.40
2023-03-26T20:42:03.674Z,16.42
2023-03-26T20:44:35.126Z,16.43
2023-03-26T20:47:07.127Z,16.44
2023-03-26T20:49:38.512Z,16.42
2023-03-26T20:52:11.153Z,16.43
2023-03-26T20:54:42.512Z,16.45
2023-03-26T20:57:14.249Z,16.46
2023-03-26T20:59:45.746Z,16.45
2023-03-26T21:02:17.311Z,16.45
2023-03-26T21:04:49.236Z,16.44
2023-03-26T21:07:20.677Z,16.41
2023-03-26T21:09:53.141Z,16.39
2023-03-26T21:12:31.533Z,16.39
2023-03-26T21:15:10.222Z,16.39
2023-03-26T21:17:49.965Z,16.39
2023-03-26T21:20:24.388Z,16.34
2023-03-26T21:23:05.228Z,16.34
2023-03-26T21:25:45.421Z,16.33
2023-03-26T21:28:35.849Z,16.32
2023-03-26T21:31:18.832Z,16.30
2023-03-26T21:33:52.079Z,16.28
2023-03-26T21:36:24.986Z,16.27
2023-03-26T21:38:57.828Z,16.26
2023-03-26T21:41:41.280Z,16.27
2023-03-26T21:44:14.344Z,16.28
2023-03-26T21:46:48.774Z,16.27
2023-03-26T21:49:21.586Z,16.26
2023-03-26T21:51:54.263Z,16.27
2023-03-26T21:54:28.706Z,16.26
2023-03-26T21:57:20.838Z,16.28
2023-03-26T22:00:01.913Z,16.28
2023-03-26T22:02:51.640Z,16.25
2023-03-26T22:05:31.801Z,16.21
2023-03-26T22:08:06.411Z,16.18
2023-03-26T22:10:37.993Z,16.16
2023-03-26T22:13:09.735Z,16.14
2023-03-26T22:15:41.422Z,16.13
2023-03-26T22:18:14.341Z,16.10
2023-03-26T22:20:48.094Z,16.08
2023-03-26T22:23:20.081Z,16.06
2023-03-26T22:25:51.558Z,16.05
2023-03-26T22:28:22.850Z,16.04
2023-03-26T22:30:54.389Z,16.04
2023-03-26T22:33:25.941Z,16.03
2023-03-26T22:35:58.400Z,16.02
2023-03-26T22:38:29.919Z,16.02
2023-03-26T22:41:01.300Z,16.01
2023-03-26T22:43:32.526Z,16.00
2023-03-26T22:46:03.815Z,16.00
2023-03-26T22:48:35.984Z,15.99
2023-03-26T22:51:09.362Z,15.96
2023-03-26T22:53:40.846Z,15.94
2023-03-26T22:56:13.611Z,15.92
2023-03-26T22:58:45.078Z,15.90
2023-03-26T23:01:18.870Z,15.89
2023-03-26T23:03:50.111Z,15.87
2023-03-26T23:06:21.796Z,15.86
2023-03-26T23:08:54.508Z,15.85
2023-03-26T23:11:25.816Z,15.84
2023-03-26T23:13:57.135Z,15.82
2023-03-26T23:16:28.929Z,15.81
2023-03-26T23:19:00.687Z,15.81
2023-03-26T23:21:32.071Z,15.81
2023-03-26T23:24:04.689Z,15.82
2023-03-26T23:26:49.699Z,15.83
2023-03-26T23:29:22.131Z,15.82
2023-03-26T23:31:54.761Z,15.82
2023-03-26T23:34:25.962Z,15.83
2023-03-26T23:36:58.294Z,15.83
2023-03-26T23:39:31.312Z,15.83
2023-03-26T23:42:02.866Z,15.82
2023-03-26T23:44:34.203Z,15.82
2023-03-26T23:47:10.334Z,15.82
2023-03-26T23:49:41.615Z,15.80
2023-03-26T23:52:12.998Z,15.80
2023-03-26T23:54:44.725Z,15.80
2023-03-26T23:57:16.303Z,15.79
2023-03-26T23:59:47.254Z,15.80
